createdAt,value
2022-10-12T00:02:09.062Z,101708.41
2022-10-12T00:04:37.045Z,101706.97
2022-10-12T00:07:06.176Z,101697.66
2022-10-12T00:09:33.983Z,101702.47
2022-10-12T00:12:01.749Z,101700.13
2022-10-12T00:14:29.557Z,101698.03
2022-10-12T00:16:58.091Z,101700.22
2022-10-12T00:19:25.883Z,101704.47
2022-10-12T00:21:53.689Z,101706.84
2022-10-12T00:24:22.813Z,101700.97
2022-10-12T00:26:51.118Z,101697.94
2022-10-12T00:29:19.137Z,101703.16
2022-10-12T00:31:46.951Z,101702.16
2022-10-12T00:34:14.742Z,101700.00
2022-10-12T00:36:43.226Z,101699.75
2022-10-12T00:39:11.654Z,101696.13
2022-10-12T00:41:41.715Z,101696.81
2022-10-12T00:44:27.881Z,101704.94
2022-10-12T00:46:57.798Z,101704.19
2022-10-12T00:49:26.789Z,101696.75
2022-10-12T00:51:57.830Z,101699.09
2022-10-12T00:54:27.490Z,101703.91
2022-10-12T00:56:57.694Z,101701.34
2022-10-12T00:59:29.380Z,101702.41
2022-10-12T01:01:57.461Z,101706.66
2022-10-12T01:04:25.605Z,101703.81
2022-10-12T01:06:53.686Z,101705.09
2022-10-12T01:09:22.017Z,101703.69
2022-10-12T01:11:49.994Z,101703.44
2022-10-12T01:14:19.334Z,101696.22
2022-10-12T01:16:51.818Z,101699.66
2022-10-12T01:19:28.242Z,101696.22
2022-10-12T01:22:00.126Z,101695.78
2022-10-12T01:24:49.000Z,101693.06
2022-10-12T01:27:25.651Z,101691.41
2022-10-12T01:30:18.526Z,101683.97
2022-10-12T01:33:19.471Z,101693.16
2022-10-12T01:35:52.872Z,101686.47
2022-10-12T01:38:37.318Z,101686.22
2022-10-12T01:41:07.992Z,101689.41
2022-10-12T01:43:36.571Z,101686.59
2022-10-12T01:46:22.242Z,101688.13
2022-10-12T01:48:54.754Z,101681.63
2022-10-12T01:51:26.393Z,101686.00
2022-10-12T01:53:58.707Z,101681.63
2022-10-12T01:56:30.257Z,101674.47
2022-10-12T01:59:02.957Z,101666.09
2022-10-12T02:01:34.277Z,101669.50
2022-10-12T02:04:07.703Z,101669.97
2022-10-12T02:06:37.752Z,101668.31
2022-10-12T02:09:09.043Z,101671.69
2022-10-12T02:11:38.825Z,101669.22
2022-10-12T02:14:09.453Z,101673.72
2022-10-12T02:16:40.624Z,101668.53
2022-10-12T02:19:11.774Z,101663.78
2022-10-12T02:21:40.366Z,101664.94
2022-10-12T02:24:10.754Z,101667.63
2022-10-12T02:26:39.970Z,101659.88
2022-10-12T02:29:11.227Z,101662.16
2022-10-12T02:31:43.819Z,101656.72
2022-10-12T02:34:15.852Z,101657.19
2022-10-12T02:36:46.921Z,101654.94
2022-10-12T02:39:17.353Z,101648.47
2022-10-12T02:41:47.719Z,101650.88
2022-10-12T02:44:17.084Z,101655.97
2022-10-12T02:46:46.580Z,101642.31
2022-10-12T02:49:16.601Z,101634.19
2022-10-12T02:51:45.103Z,101633.59
2022-10-12T02:54:13.484Z,101627.00
2022-10-12T02:56:43.731Z,101632.03
2022-10-12T02:59:11.525Z,101635.44
2022-10-12T03:01:39.369Z,101628.38
2022-10-12T03:04:07.351Z,101623.19
2022-10-12T03:06:36.640Z,101629.25
2022-10-12T03:09:05.257Z,101626.34
2022-10-12T03:11:33.049Z,101622.56
2022-10-12T03:14:01.033Z,101625.88
2022-10-12T03:16:29.017Z,101620.91
2022-10-12T03:18:56.760Z,101630.47
2022-10-12T03:21:24.561Z,101628.38
2022-10-12T03:23:53.839Z,101629.41
2022-10-12T03:26:22.892Z,101625.97
2022-10-12T03:28:51.106Z,101612.28
2022-10-12T03:31:19.056Z,101620.50
2022-10-12T03:33:46.889Z,101619.53
2022-10-12T03:36:14.831Z,101607.28
2022-10-12T03:38:42.620Z,101603.75
2022-10-12T03:41:11.978Z,101612.09
2022-10-12T03:43:39.784Z,101609.00
2022-10-12T03:46:07.625Z,101608.19
2022-10-12T03:48:35.415Z,101610.06
2022-10-12T03:51:03.354Z,101608.41
2022-10-12T03:53:31.458Z,101611.56
2022-10-12T03:55:59.200Z,101611.41
2022-10-12T03:58:28.317Z,101603.28
2022-10-12T04:00:56.368Z,101604.72
2022-10-12T04:03:26.073Z,101603.28
2022-10-12T04:06:03.168Z,101608.03
2022-10-12T04:08:31.044Z,101598.03
2022-10-12T04:11:01.914Z,101594.13
2022-10-12T04:13:31.827Z,101602.22
2022-10-12T04:16:02.480Z,101591.03
2022-10-12T04:18:30.846Z,101599.31
2022-10-12T04:20:58.630Z,101591.19
2022-10-12T04:23:26.487Z,101595.56
2022-10-12T04:25:54.433Z,101593.00
2022-10-12T04:28:22.306Z,101594.59
2022-10-12T04:30:51.636Z,101590.19
2022-10-12T04:33:19.435Z,101585.16
2022-10-12T04:35:47.226Z,101588.84
2022-10-12T04:38:15.137Z,101586.50
2022-10-12T04:40:46.687Z,101597.13
2022-10-12T04:43:14.737Z,101591.41
2022-10-12T04:45:42.581Z,101588.84
2022-10-12T04:48:11.780Z,101592.97
2022-10-12T04:50:39.671Z,101588.28
2022-10-12T04:53:07.495Z,101588.88
2022-10-12T04:55:37.835Z,101590.63
2022-10-12T04:58:05.646Z,101591.84
2022-10-12T05:00:33.417Z,101596.19
2022-10-12T05:03:01.256Z,101596.69
2022-10-12T05:05:30.394Z,101587.59
2022-10-12T05:07:58.353Z,101591.84
2022-10-12T05:10:26.155Z,101587.34
2022-10-12T05:12:54.014Z,101586.63
2022-10-12T05:15:21.837Z,101586.63
2022-10-12T05:17:49.652Z,101581.22
2022-10-12T05:20:17.772Z,101577.00
2022-10-12T05:22:46.956Z,101574.97
2022-10-12T05:25:14.788Z,101570.84
2022-10-12T05:27:42.721Z,101570.47
2022-10-12T05:30:10.974Z,101571.06
2022-10-12T05:32:39.356Z,101574.25
2022-10-12T05:35:10.002Z,101577.03
2022-10-12T05:37:38.129Z,101570.56
2022-10-12T05:40:08.130Z,101574.19
2022-10-12T05:42:36.300Z,101568.88
2022-10-12T05:45:04.987Z,101579.97
2022-10-12T05:47:32.813Z,101588.06
2022-10-12T05:50:00.611Z,101588.28
2022-10-12T05:52:28.409Z,101583.22
2022-10-12T05:54:56.218Z,101595.66
2022-10-12T05:57:25.588Z,101597.09
2022-10-12T05:59:54.609Z,101601.31
2022-10-12T06:02:22.486Z,101601.00
2022-10-12T06:04:50.278Z,101592.75
2022-10-12T06:07:18.131Z,101593.34
2022-10-12T06:09:47.535Z,101595.00
2022-10-12T06:12:16.233Z,101597.72
2022-10-12T06:14:45.455Z,101601.00
2022-10-12T06:17:13.414Z,101608.16
2022-10-12T06:19:41.223Z,101599.44
2022-10-12T06:22:09.345Z,101600.25
2022-10-12T06:24:37.446Z,101601.47
2022-10-12T06:27:05.252Z,101603.78
2022-10-12T06:29:33.021Z,101592.59
2022-10-12T06:32:02.165Z,101602.59
2022-10-12T06:34:30.250Z,101597.41
2022-10-12T06:37:01.826Z,101591.13
2022-10-12T06:39:30.724Z,101592.97
2022-10-12T06:41:58.959Z,101586.91
2022-10-12T06:44:27.014Z,101597.47
2022-10-12T06:46:54.827Z,101595.50
2022-10-12T06:49:23.972Z,101591.56
2022-10-12T06:51:52.017Z,101591.63
2022-10-12T06:54:19.890Z,101596.72
2022-10-12T06:56:49.214Z,101599.84
2022-10-12T06:59:19.022Z,101590.66
2022-10-12T07:01:46.950Z,101582.78
2022-10-12T07:04:14.961Z,101590.84
2022-10-12T07:06:44.325Z,101587.66
2022-10-12T07:09:12.099Z,101583.25
2022-10-12T07:11:39.904Z,101583.28
2022-10-12T07:14:07.702Z,101570.81
2022-10-12T07:16:35.694Z,101562.28
2022-10-12T07:19:03.539Z,101571.47
2022-10-12T07:21:31.386Z,101562.63
2022-10-12T07:24:00.856Z,101569.47
2022-10-12T07:26:28.690Z,101571.13
2022-10-12T07:28:56.774Z,101569.78
2022-10-12T07:31:24.795Z,101577.78
2022-10-12T07:33:52.751Z,101578.97
2022-10-12T07:36:21.932Z,101573.50
2022-10-12T07:38:50.417Z,101575.78
2022-10-12T07:41:24.627Z,101572.97
2022-10-12T07:43:55.252Z,101573.69
2022-10-12T07:46:23.275Z,101574.78
2022-10-12T07:48:51.520Z,101556.81
2022-10-12T07:51:19.771Z,101569.00
2022-10-12T07:53:47.717Z,101561.53
2022-10-12T07:56:18.492Z,101568.41
2022-10-12T07:58:50.746Z,101560.38
2022-10-12T08:01:19.749Z,101570.25
2022-10-12T08:03:47.777Z,101559.00
2022-10-12T08:06:16.105Z,101563.09
2022-10-12T08:08:44.721Z,101565.31
2022-10-12T08:11:12.822Z,101562.59
2022-10-12T08:13:41.226Z,101565.09
2022-10-12T08:16:11.448Z,101564.06
2022-10-12T08:18:39.255Z,101563.88
2022-10-12T08:21:07.423Z,101558.94
2022-10-12T08:23:35.943Z,101557.53
2022-10-12T08:26:04.250Z,101562.72
2022-10-12T08:28:32.490Z,101559.50
2022-10-12T08:31:00.291Z,101559.81
2022-10-12T08:33:30.417Z,101562.19
2022-10-12T08:35:58.153Z,101554.19
2022-10-12T08:38:39.296Z,101562.59
2022-10-12T08:41:19.932Z,101564.03
2022-10-12T08:43:52.905Z,101554.13
2022-10-12T08:46:21.952Z,101559.88
2022-10-12T08:48:56.505Z,101557.88
2022-10-12T08:51:25.646Z,101559.09
2022-10-12T08:53:55.585Z,101548.91
2022-10-12T08:56:23.452Z,101552.38
2022-10-12T08:58:52.341Z,101547.19
2022-10-12T09:01:25.403Z,101542.97
2022-10-12T09:04:07.121Z,101546.84
2022-10-12T09:06:40.817Z,101544.78
2022-10-12T09:09:16.704Z,101553.19
2022-10-12T09:11:55.753Z,101551.63
2022-10-12T09:14:26.585Z,101547.88
2022-10-12T09:16:56.308Z,101551.56
2022-10-12T09:19:29.227Z,101545.81
2022-10-12T09:21:58.029Z,101545.66
2022-10-12T09:24:28.682Z,101543.25
2022-10-12T09:26:58.914Z,101539.53
2022-10-12T09:29:28.145Z,101551.50
2022-10-12T09:32:13.566Z,101550.22
2022-10-12T09:34:43.371Z,101542.03
2022-10-12T09:37:15.871Z,101551.31
2022-10-12T09:39:43.765Z,101544.56
2022-10-12T09:42:11.785Z,101549.38
2022-10-12T09:44:40.957Z,101545.56
2022-10-12T09:47:24.254Z,101537.31
2022-10-12T09:49:54.357Z,101542.94
2022-10-12T09:52:23.781Z,101535.19
2022-10-12T09:54:52.580Z,101537.22
2022-10-12T09:57:21.660Z,101533.97
2022-10-12T09:59:50.163Z,101542.19
2022-10-12T10:02:19.378Z,101539.44
2022-10-12T10:04:47.830Z,101538.31
2022-10-12T10:07:22.753Z,101540.13
2022-10-12T10:10:05.117Z,101542.97
2022-10-12T10:12:33.053Z,101545.53
2022-10-12T10:15:02.014Z,101536.56
2022-10-12T10:17:31.937Z,101534.22
2022-10-12T10:20:01.682Z,101533.81
2022-10-12T10:22:31.401Z,101531.81
2022-10-12T10:25:00.852Z,101525.75
2022-10-12T10:27:30.639Z,101527.31
2022-10-12T10:30:29.241Z,101523.56
2022-10-12T10:33:08.433Z,101522.25
2022-10-12T10:35:36.569Z,101517.59
2022-10-12T10:38:07.358Z,101524.97
2022-10-12T10:40:35.441Z,101517.00
2022-10-12T10:43:04.734Z,101522.47
2022-10-12T10:45:33.822Z,101525.34
2022-10-12T10:48:07.627Z,101521.47
2022-10-12T10:50:37.563Z,101516.81
2022-10-12T10:53:09.089Z,101515.88
2022-10-12T10:55:43.949Z,101502.69
2022-10-12T10:58:17.390Z,101502.94
2022-10-12T11:00:48.085Z,101495.75
2022-10-12T11:05:57.324Z,101488.88
2022-10-12T11:08:28.817Z,101493.91
2022-10-12T11:10:58.756Z,101483.88
2022-10-12T11:13:32.566Z,101481.41
2022-10-12T11:16:04.591Z,101480.63
2022-10-12T11:18:35.806Z,101483.03
2022-10-12T11:21:05.723Z,101476.06
2022-10-12T11:23:41.529Z,101476.03
2022-10-12T11:26:13.148Z,101474.97
2022-10-12T11:28:41.710Z,101478.28
2022-10-12T11:31:18.247Z,101475.06
2022-10-12T11:33:47.237Z,101467.72
2022-10-12T11:36:19.346Z,101472.22
2022-10-12T11:38:50.944Z,101461.13
2022-10-12T11:41:36.557Z,101462.50
2022-10-12T11:44:06.000Z,101456.19
2022-10-12T11:46:36.981Z,101453.75
2022-10-12T11:49:09.243Z,101449.75
2022-10-12T11:51:37.145Z,101442.28
2022-10-12T11:54:10.066Z,101443.59
2022-10-12T11:56:41.212Z,101446.34
2022-10-12T11:59:14.362Z,101438.13
2022-10-12T12:01:48.093Z,101440.06
2022-10-12T12:04:44.775Z,101442.81
2022-10-12T12:07:33.506Z,101424.41
2022-10-12T12:10:22.909Z,101428.13
2022-10-12T12:13:07.990Z,101421.22
2022-10-12T12:15:36.187Z,101426.22
2022-10-12T12:18:12.323Z,101419.75
2022-10-12T12:21:04.253Z,101417.38
2022-10-12T12:23:36.988Z,101427.16
2022-10-12T12:26:11.823Z,101418.06
2022-10-12T12:28:43.895Z,101415.22
2022-10-12T12:31:14.524Z,101414.00
2022-10-12T12:37:21.700Z,101402.09
2022-10-12T12:39:53.229Z,101393.28
2022-10-12T12:42:26.203Z,101405.97
2022-10-12T12:44:54.486Z,101402.63
2022-10-12T12:47:44.613Z,101391.22
2022-10-12T12:50:28.660Z,101392.25
2022-10-12T12:53:00.737Z,101387.53
2022-10-12T12:55:49.609Z,101390.44
2022-10-12T12:58:28.338Z,101390.28
2022-10-12T13:01:03.659Z,101389.25
2022-10-12T13:03:49.053Z,101378.84
2022-10-12T13:06:34.604Z,101379.69
2022-10-12T13:09:20.771Z,101373.63
2022-10-12T13:11:59.793Z,101364.56
2022-10-12T13:14:36.016Z,101378.75
2022-10-12T13:17:31.881Z,101371.53
2022-10-12T13:19:58.504Z,101368.41
2022-10-12T13:22:28.238Z,101365.63
2022-10-12T13:25:00.011Z,101363.72
2022-10-12T13:27:33.360Z,101350.56
2022-10-12T13:30:05.805Z,101353.63
2022-10-12T13:32:41.531Z,101355.97
2022-10-12T13:35:13.951Z,101356.59
2022-10-12T13:37:41.914Z,101364.72
2022-10-12T13:40:24.531Z,101367.19
2022-10-12T13:42:52.479Z,101356.97
2022-10-12T13:45:21.650Z,101351.13
2022-10-12T13:47:49.346Z,101350.50
2022-10-12T13:50:18.042Z,101346.69
2022-10-12T13:52:52.962Z,101348.00
2022-10-12T13:55:24.976Z,101339.38
2022-10-12T13:57:52.830Z,101336.66
2022-10-12T14:00:25.026Z,101337.78
2022-10-12T14:02:57.447Z,101329.09
2022-10-12T14:05:27.009Z,101335.31
2022-10-12T14:07:57.028Z,101327.94
2022-10-12T14:10:27.249Z,101316.69
2022-10-12T14:12:56.043Z,101322.75
2022-10-12T14:15:26.990Z,101315.22
2022-10-12T14:17:55.304Z,101313.94
2022-10-12T14:20:28.837Z,101312.66
2022-10-12T14:22:58.117Z,101310.31
2022-10-12T14:25:27.041Z,101313.16
2022-10-12T14:27:55.858Z,101304.63
2022-10-12T14:30:26.135Z,101308.72
2022-10-12T14:32:58.758Z,101311.16
2022-10-12T14:35:28.305Z,101307.25
2022-10-12T14:37:56.855Z,101311.16
2022-10-12T14:40:32.641Z,101311.09
2022-10-12T14:43:03.423Z,101316.13
2022-10-12T14:45:33.140Z,101321.28
2022-10-12T14:48:01.532Z,101316.25
2022-10-12T14:50:30.246Z,101312.34
2022-10-12T14:52:58.836Z,101305.03
2022-10-12T14:55:27.597Z,101298.25
2022-10-12T14:57:55.963Z,101308.84
2022-10-12T15:00:24.941Z,101300.56
2022-10-12T15:02:57.472Z,101302.34
2022-10-12T15:05:28.882Z,101303.16
2022-10-12T15:07:56.779Z,101297.47
2022-10-12T15:10:24.753Z,101294.09
2022-10-12T15:12:52.738Z,101297.66
2022-10-12T15:15:29.838Z,101292.38
2022-10-12T15:17:59.314Z,101292.50
2022-10-12T15:20:27.420Z,101297.31
2022-10-12T15:22:55.108Z,101284.25
2022-10-12T15:25:24.750Z,101286.97
2022-10-12T15:27:52.686Z,101281.94
2022-10-12T15:30:20.753Z,101270.81
2022-10-12T15:32:49.214Z,101269.84
2022-10-12T15:35:20.110Z,101271.94
2022-10-12T15:37:48.591Z,101278.28
2022-10-12T15:40:16.726Z,101275.25
2022-10-12T15:42:44.881Z,101271.03
2022-10-12T15:45:17.059Z,101271.94
2022-10-12T15:47:45.428Z,101277.25
2022-10-12T15:50:13.207Z,101272.97
2022-10-12T15:52:42.516Z,101277.16
2022-10-12T15:55:17.563Z,101269.00
2022-10-12T15:57:46.354Z,101277.56
2022-10-12T16:00:15.443Z,101281.25
2022-10-12T16:02:43.226Z,101276.34
2022-10-12T16:05:21.334Z,101275.94
2022-10-12T16:07:50.872Z,101269.72
2022-10-12T16:10:19.585Z,101261.69
2022-10-12T16:12:48.318Z,101253.31
2022-10-12T16:15:17.146Z,101244.88
2022-10-12T16:17:46.007Z,101246.38
2022-10-12T16:20:13.730Z,101244.88
2022-10-12T16:22:41.925Z,101228.59
2022-10-12T16:25:12.086Z,101240.59
2022-10-12T16:27:40.072Z,101259.28
2022-10-12T16:30:10.365Z,101257.03
2022-10-12T16:32:45.081Z,101252.31
2022-10-12T16:35:17.631Z,101251.34
2022-10-12T16:37:50.019Z,101232.28
2022-10-12T16:40:26.026Z,101237.94
2022-10-12T16:42:59.422Z,101249.06
2022-10-12T16:45:33.516Z,101250.28
2022-10-12T16:48:06.928Z,101262.91
2022-10-12T16:50:41.499Z,101263.56
2022-10-12T16:53:13.713Z,101243.38
2022-10-12T16:55:49.016Z,101244.03
2022-10-12T16:58:18.713Z,101262.75
2022-10-12T17:00:46.594Z,101259.03
2022-10-12T17:03:14.411Z,101267.47
2022-10-12T17:05:42.372Z,101260.25
2022-10-12T17:08:14.978Z,101267.78
2022-10-12T17:10:45.512Z,101265.69
2022-10-12T17:13:14.332Z,101267.44
2022-10-12T17:15:42.482Z,101261.50
2022-10-12T17:18:11.762Z,101263.91
2022-10-12T17:20:39.580Z,101259.41
2022-10-12T17:23:07.553Z,101275.66
2022-10-12T17:25:35.323Z,101275.78
2022-10-12T17:28:04.413Z,101278.09
2022-10-12T17:30:52.105Z,101283.31
2022-10-12T17:33:27.749Z,101279.53
2022-10-12T17:35:55.535Z,101296.28
2022-10-12T17:38:23.644Z,101284.34
2022-10-12T17:40:51.979Z,101284.34
2022-10-12T17:43:21.376Z,101292.31
2022-10-12T17:45:49.292Z,101298.31
2022-10-12T17:48:16.980Z,101293.72
2022-10-12T17:50:44.678Z,101301.41
2022-10-12T17:53:12.465Z,101296.00
2022-10-12T17:55:48.931Z,101297.13
2022-10-12T17:58:17.064Z,101296.53
2022-10-12T18:00:46.351Z,101289.44
2022-10-12T18:03:14.223Z,101298.75
2022-10-12T18:05:41.986Z,101299.84
2022-10-12T18:08:09.909Z,101294.94
2022-10-12T18:10:40.197Z,101287.84
2022-10-12T18:13:08.234Z,101288.94
2022-10-12T18:15:35.923Z,101290.03
2022-10-12T18:18:05.131Z,101281.06
2022-10-12T18:20:33.594Z,101272.59
2022-10-12T18:23:01.607Z,101280.81
2022-10-12T18:25:29.664Z,101285.19
2022-10-12T18:27:57.407Z,101289.63
2022-10-12T18:30:25.142Z,101292.06
2022-10-12T18:32:52.909Z,101290.16
2022-10-12T18:35:22.109Z,101294.53
2022-10-12T18:37:49.835Z,101281.19
2022-10-12T18:40:17.701Z,101292.66
2022-10-12T18:42:45.587Z,101292.69
2022-10-12T18:45:13.377Z,101291.28
2022-10-12T18:47:41.350Z,101290.19
2022-10-12T18:50:09.811Z,101296.44
2022-10-12T18:52:38.945Z,101306.00
2022-10-12T18:55:07.094Z,101301.63
2022-10-12T18:57:39.659Z,101299.41
2022-10-12T19:00:09.293Z,101294.25
2022-10-12T19:02:37.347Z,101291.78
2022-10-12T19:05:08.041Z,101284.09
2022-10-12T19:07:36.228Z,101283.84
2022-10-12T19:10:06.958Z,101277.03
2022-10-12T19:12:35.164Z,101282.19
2022-10-12T19:15:02.890Z,101287.38
2022-10-12T19:17:31.276Z,101280.28
2022-10-12T19:19:59.513Z,101281.94
2022-10-12T19:22:27.778Z,101268.28
2022-10-12T19:24:55.445Z,101278.38
2022-10-12T19:27:29.927Z,101272.13
2022-10-12T19:29:57.646Z,101262.28
2022-10-12T19:32:25.381Z,101263.63
2022-10-12T19:34:53.183Z,101258.91
2022-10-12T19:37:20.959Z,101259.44
2022-10-12T19:39:49.108Z,101257.81
2022-10-12T19:42:17.619Z,101255.59
2022-10-12T19:44:47.164Z,101257.47
2022-10-12T19:47:15.003Z,101260.16
2022-10-12T19:49:45.445Z,101260.97
2022-10-12T19:52:15.371Z,101255.47
2022-10-12T19:54:45.586Z,101251.06
2022-10-12T19:57:13.292Z,101246.94
2022-10-12T19:59:40.998Z,101249.91
2022-10-12T20:02:11.161Z,101249.34
2022-10-12T20:04:39.154Z,101241.19
2022-10-12T20:07:06.852Z,101240.13
2022-10-12T20:09:34.708Z,101248.97
2022-10-12T20:12:02.828Z,101241.28
2022-10-12T20:14:30.768Z,101252.41
2022-10-12T20:16:58.700Z,101249.34
2022-10-12T20:19:27.845Z,101244.47
2022-10-12T20:21:55.717Z,101238.47
2022-10-12T20:24:23.436Z,101246.31
2022-10-12T20:26:52.942Z,101249.81
2022-10-12T20:29:20.678Z,101241.91
2022-10-12T20:31:48.367Z,101252.09
2022-10-12T20:34:16.054Z,101249.94
2022-10-12T20:36:45.638Z,101249.66
2022-10-12T20:39:13.526Z,101249.66
2022-10-12T20:41:41.399Z,101252.19
2022-10-12T20:44:10.175Z,101247.03
2022-10-12T20:46:37.965Z,101241.28
2022-10-12T20:49:06.032Z,101251.13
2022-10-12T20:51:35.663Z,101250.50
2022-10-12T20:54:06.367Z,101253.41
2022-10-12T20:56:34.754Z,101249.03
2022-10-12T20:59:02.688Z,101246.78
2022-10-12T21:01:30.443Z,101249.22
2022-10-12T21:03:58.328Z,101245.94
2022-10-12T21:06:26.065Z,101242.34
2022-10-12T21:08:54.819Z,101237.06
2022-10-12T21:11:24.166Z,101240.13
2022-10-12T21:13:52.034Z,101242.50
2022-10-12T21:16:19.909Z,101238.91
2022-10-12T21:18:47.851Z,101243.03
2022-10-12T21:21:17.058Z,101234.31
2022-10-12T21:23:45.602Z,101238.66
2022-10-12T21:26:14.032Z,101231.47
2022-10-12T21:28:43.580Z,101225.56
2022-10-12T21:31:11.392Z,101234.19
2022-10-12T21:33:39.778Z,101230.41
2022-10-12T21:36:08.446Z,101230.88
2022-10-12T21:38:36.221Z,101223.47
2022-10-12T21:41:04.398Z,101230.81
2022-10-12T21:43:32.184Z,101223.72
2022-10-12T21:46:04.576Z,101226.41
2022-10-12T21:48:33.058Z,101232.66
2022-10-12T21:51:01.246Z,101228.28
2022-10-12T21:53:29.198Z,101229.09
2022-10-12T21:55:56.968Z,101226.91
2022-10-12T21:58:24.767Z,101229.09
2022-10-12T22:00:53.023Z,101229.31
2022-10-12T22:03:22.681Z,101222.28
2022-10-12T22:05:50.461Z,101226.34
2022-10-12T22:08:18.186Z,101218.22
2022-10-12T22:10:45.876Z,101223.63
2022-10-12T22:13:13.745Z,101215.47
2022-10-12T22:15:41.630Z,101223.63
2022-10-12T22:18:09.436Z,101224.69
2022-10-12T22:20:38.493Z,101223.06
2022-10-12T22:23:06.567Z,101222.19
2022-10-12T22:25:34.284Z,101220.91
2022-10-12T22:28:02.584Z,101216.59
2022-10-12T22:30:30.303Z,101226.50
2022-10-12T22:32:58.085Z,101210.31
2022-10-12T22:35:25.785Z,101207.28
2022-10-12T22:37:54.836Z,101206.69
2022-10-12T22:40:22.700Z,101202.84
2022-10-12T22:42:50.399Z,101204.75
2022-10-12T22:45:18.287Z,101209.75
2022-10-12T22:47:46.110Z,101200.56
2022-10-12T22:50:13.866Z,101200.06
2022-10-12T22:52:41.811Z,101206.72
2022-10-12T22:55:11.173Z,101210.53
2022-10-12T22:57:38.889Z,101198.38
2022-10-12T23:00:07.133Z,101208.22
2022-10-12T23:02:34.875Z,101204.22
2022-10-12T23:05:03.154Z,101192.19
2022-10-12T23:07:30.891Z,101196.31
2022-10-12T23:09:58.570Z,101202.34
2022-10-12T23:12:27.750Z,101197.97
2022-10-12T23:14:55.557Z,101198.22
2022-10-12T23:17:23.388Z,101194.41
2022-10-12T23:19:51.126Z,101186.75
2022-10-12T23:22:19.180Z,101191.09
2022-10-12T23:24:47.226Z,101193.28
2022-10-12T23:27:15.128Z,101196.81
2022-10-12T23:29:44.315Z,101183.44
2022-10-12T23:32:12.069Z,101191.66
2022-10-12T23:34:39.818Z,101188.38
2022-10-12T23:37:07.922Z,101184.84
2022-10-12T23:39:35.774Z,101181.59
2022-10-12T23:42:03.608Z,101180.25
2022-10-12T23:44:31.403Z,101180.81
2022-10-12T23:47:00.426Z,101180.00
2022-10-12T23:49:28.137Z,101181.13
2022-10-12T23:51:55.873Z,101184.69
2022-10-12T23:54:23.891Z,101185.75
2022-10-12T23:56:51.652Z,101189.88
2022-10-12T23:59:19.386Z,101182.25
